sensor_id;sensor_type;location;lat;lon;timestamp;temperature;humidity
11005;DHT22;5555;59.622;16.556;2023-05-10T00:01:23;9.50;99.90
11005;DHT22;5555;59.622;16.556;2023-05-10T00:03:49;9.50;99.90
11005;DHT22;5555;59.622;16.556;2023-05-10T00:06:14;9.50;99.90
11005;DHT22;5555;59.622;16.556;2023-05-10T00:08:40;9.50;99.90
11005;DHT22;5555;59.622;16.556;2023-05-10T00:11:06;9.40;99.90
11005;DHT22;5555;59.622;16.556;2023-05-10T00:13:31;9.40;99.90
11005;DHT22;5555;59.622;16.556;2023-05-10T00:15:57;9.40;99.90
11005;DHT22;5555;59.622;16.556;2023-05-10T00:18:23;9.30;99.90
11005;DHT22;5555;59.622;16.556;2023-05-10T00:20:48;9.30;99.90
11005;DHT22;5555;59.622;16.556;2023-05-10T00:23:14;9.20;99.90
11005;DHT22;5555;59.622;16.556;2023-05-10T00:25:40;9.20;99.90
11005;DHT22;5555;59.622;16.556;2023-05-10T00:28:06;9.20;99.90
11005;DHT22;5555;59.622;16.556;2023-05-10T00:30:31;9.10;99.90
11005;DHT22;5555;59.622;16.556;2023-05-10T00:32:57;9.10;99.90
11005;DHT22;5555;59.622;16.556;2023-05-10T00:35:22;9.10;99.90
11005;DHT22;5555;59.622;16.556;2023-05-10T00:37:49;9.00;99.90
11005;DHT22;5555;59.622;16.556;2023-05-10T00:40:14;9.00;99.90
11005;DHT22;5555;59.622;16.556;2023-05-10T00:42:40;9.00;99.90
11005;DHT22;5555;59.622;16.556;2023-05-10T00:45:06;9.00;99.90
11005;DHT22;5555;59.622;16.556;2023-05-10T00:47:32;9.00;99.90
11005;DHT22;5555;59.622;16.556;2023-05-10T00:49:59;9.00;99.90
11005;DHT22;5555;59.622;16.556;2023-05-10T00:52:26;8.90;99.90
11005;DHT22;5555;59.622;16.556;2023-05-10T00:54:52;8.90;99.90
11005;DHT22;5555;59.622;16.556;2023-05-10T00:57:18;8.80;99.90
11005;DHT22;5555;59.622;16.556;2023-05-10T00:59:44;8.80;99.90
11005;DHT22;5555;59.622;16.556;2023-05-10T01:02:11;8.70;99.90
11005;DHT22;5555;59.622;16.556;2023-05-10T01:04:37;8.70;99.90
11005;DHT22;5555;59.622;16.556;2023-05-10T01:07:04;8.70;99.90
11005;DHT22;5555;59.622;16.556;2023-05-10T01:09:29;8.60;99.90
11005;DHT22;5555;59.622;16.556;2023-05-10T01:11:56;8.60;99.90
11005;DHT22;5555;59.622;16.556;2023-05-10T01:14:21;8.60;99.90
11005;DHT22;5555;59.622;16.556;2023-05-10T01:16:49;8.50;99.90
11005;DHT22;5555;59.622;16.556;2023-05-10T01:19:22;8.50;99.90
11005;DHT22;5555;59.622;16.556;2023-05-10T01:21:49;8.50;99.90
11005;DHT22;5555;59.622;16.556;2023-05-10T01:24:31;8.50;99.90
11005;DHT22;5555;59.622;16.556;2023-05-10T01:27:47;8.50;99.90
11005;DHT22;5555;59.622;16.556;2023-05-10T01:33:23;8.40;99.90
11005;DHT22;5555;59.622;16.556;2023-05-10T01:36:23;8.40;99.90
11005;DHT22;5555;59.622;16.556;2023-05-10T01:39:17;8.40;99.90
11005;DHT22;5555;59.622;16.556;2023-05-10T01:47:05;8.30;99.90
11005;DHT22;5555;59.622;16.556;2023-05-10T01:49:39;8.30;99.90
11005;DHT22;5555;59.622;16.556;2023-05-10T01:52:14;8.30;99.90
11005;DHT22;5555;59.622;16.556;2023-05-10T01:54:52;8.30;99.90
11005;DHT22;5555;59.622;16.556;2023-05-10T01:57:20;8.30;99.90
11005;DHT22;5555;59.622;16.556;2023-05-10T01:59:50;8.30;99.90
11005;DHT22;5555;59.622;16.556;2023-05-10T02:02:18;8.20;99.90
11005;DHT22;5555;59.622;16.556;2023-05-10T02:04:45;8.20;99.90
11005;DHT22;5555;59.622;16.556;2023-05-10T02:07:12;8.20;99.90
11005;DHT22;5555;59.622;16.556;2023-05-10T02:09:39;8.10;99.90
11005;DHT22;5555;59.622;16.556;2023-05-10T02:12:07;8.10;99.90
11005;DHT22;5555;59.622;16.556;2023-05-10T02:14:35;8.10;99.90
11005;DHT22;5555;59.622;16.556;2023-05-10T02:17:04;8.10;99.90
11005;DHT22;5555;59.622;16.556;2023-05-10T02:19:32;8.10;99.90
11005;DHT22;5555;59.622;16.556;2023-05-10T02:21:59;8.10;99.90
11005;DHT22;5555;59.622;16.556;2023-05-10T02:24:27;8.10;99.90
11005;DHT22;5555;59.622;16.556;2023-05-10T02:26:54;8.10;99.90
11005;DHT22;5555;59.622;16.556;2023-05-10T02:29:25;8.00;99.90
11005;DHT22;5555;59.622;16.556;2023-05-10T02:31:53;8.00;99.90
11005;DHT22;5555;59.622;16.556;2023-05-10T02:34:21;8.00;99.90
11005;DHT22;5555;59.622;16.556;2023-05-10T02:36:47;8.00;99.90
11005;DHT22;5555;59.622;16.556;2023-05-10T02:39:14;8.00;99.90
11005;DHT22;5555;59.622;16.556;2023-05-10T02:41:42;7.90;99.90
11005;DHT22;5555;59.622;16.556;2023-05-10T02:44:09;7.90;99.90
11005;DHT22;5555;59.622;16.556;2023-05-10T02:46:36;7.90;99.90
11005;DHT22;5555;59.622;16.556;2023-05-10T02:49:03;7.90;99.90
11005;DHT22;5555;59.622;16.556;2023-05-10T02:51:32;7.90;99.90
11005;DHT22;5555;59.622;16.556;2023-05-10T02:54:12;7.90;99.90
11005;DHT22;5555;59.622;16.556;2023-05-10T02:56:43;7.90;99.90
11005;DHT22;5555;59.622;16.556;2023-05-10T02:59:10;7.90;99.90
11005;DHT22;5555;59.622;16.556;2023-05-10T03:01:36;7.80;99.90
11005;DHT22;5555;59.622;16.556;2023-05-10T03:04:02;7.90;99.90
11005;DHT22;5555;59.622;16.556;2023-05-10T03:06:27;7.90;99.90
11005;DHT22;5555;59.622;16.556;2023-05-10T03:08:53;7.90;99.90
11005;DHT22;5555;59.622;16.556;2023-05-10T03:11:32;7.90;99.90
11005;DHT22;5555;59.622;16.556;2023-05-10T03:17:22;7.80;99.90
11005;DHT22;5555;59.622;16.556;2023-05-10T03:19:55;7.80;99.90
11005;DHT22;5555;59.622;16.556;2023-05-10T03:22:31;7.70;99.90
11005;DHT22;5555;59.622;16.556;2023-05-10T03:24:58;7.70;99.90
11005;DHT22;5555;59.622;16.556;2023-05-10T03:27:27;7.70;99.90
11005;DHT22;5555;59.622;16.556;2023-05-10T03:29:55;7.70;99.90
11005;DHT22;5555;59.622;16.556;2023-05-10T03:32:21;7.70;99.90
11005;DHT22;5555;59.622;16.556;2023-05-10T03:34:47;7.70;99.90
11005;DHT22;5555;59.622;16.556;2023-05-10T03:37:13;7.70;99.90
11005;DHT22;5555;59.622;16.556;2023-05-10T03:39:38;7.70;99.90
11005;DHT22;5555;59.622;16.556;2023-05-10T03:42:04;7.80;99.90
11005;DHT22;5555;59.622;16.556;2023-05-10T03:44:30;7.80;99.90
11005;DHT22;5555;59.622;16.556;2023-05-10T03:46:56;7.80;99.90
11005;DHT22;5555;59.622;16.556;2023-05-10T03:49:22;7.90;99.90
11005;DHT22;5555;59.622;16.556;2023-05-10T03:51:48;7.90;99.90
11005;DHT22;5555;59.622;16.556;2023-05-10T03:54:13;7.90;99.90
11005;DHT22;5555;59.622;16.556;2023-05-10T03:56:39;8.00;99.90
11005;DHT22;5555;59.622;16.556;2023-05-10T03:59:05;8.00;99.90
11005;DHT22;5555;59.622;16.556;2023-05-10T04:01:33;8.10;99.90
11005;DHT22;5555;59.622;16.556;2023-05-10T04:03:59;8.20;99.90
11005;DHT22;5555;59.622;16.556;2023-05-10T04:06:24;8.20;99.90
11005;DHT22;5555;59.622;16.556;2023-05-10T04:08:50;8.20;99.90
11005;DHT22;5555;59.622;16.556;2023-05-10T04:11:15;8.30;99.90
11005;DHT22;5555;59.622;16.556;2023-05-10T04:13:41;8.40;99.90
11005;DHT22;5555;59.622;16.556;2023-05-10T04:16:08;8.40;99.90
11005;DHT22;5555;59.622;16.556;2023-05-10T04:18:34;8.50;99.90
11005;DHT22;5555;59.622;16.556;2023-05-10T04:21:00;8.50;99.90
11005;DHT22;5555;59.622;16.556;2023-05-10T04:23:26;8.50;99.90
11005;DHT22;5555;59.622;16.556;2023-05-10T04:25:52;8.60;99.90
11005;DHT22;5555;59.622;16.556;2023-05-10T04:28:18;8.70;99.90
11005;DHT22;5555;59.622;16.556;2023-05-10T04:30:44;8.80;99.90
11005;DHT22;5555;59.622;16.556;2023-05-10T04:33:09;8.90;99.90
11005;DHT22;5555;59.622;16.556;2023-05-10T04:35:35;9.00;99.90
11005;DHT22;5555;59.622;16.556;2023-05-10T04:38:01;9.10;99.90
11005;DHT22;5555;59.622;16.556;2023-05-10T04:40:26;9.30;99.90
11005;DHT22;5555;59.622;16.556;2023-05-10T04:42:52;9.40;99.90
11005;DHT22;5555;59.622;16.556;2023-05-10T04:45:18;9.50;99.90
11005;DHT22;5555;59.622;16.556;2023-05-10T04:47:43;9.60;99.90
11005;DHT22;5555;59.622;16.556;2023-05-10T04:50:09;9.70;99.90
11005;DHT22;5555;59.622;16.556;2023-05-10T04:52:35;9.80;99.90
11005;DHT22;5555;59.622;16.556;2023-05-10T04:55:01;9.90;99.90
11005;DHT22;5555;59.622;16.556;2023-05-10T04:57:27;10.00;99.90
11005;DHT22;5555;59.622;16.556;2023-05-10T04:59:53;10.10;99.90
11005;DHT22;5555;59.622;16.556;2023-05-10T05:02:18;10.30;99.90
11005;DHT22;5555;59.622;16.556;2023-05-10T05:04:44;10.30;99.90
11005;DHT22;5555;59.622;16.556;2023-05-10T05:07:09;10.40;99.90
11005;DHT22;5555;59.622;16.556;2023-05-10T05:09:35;10.50;99.90
11005;DHT22;5555;59.622;16.556;2023-05-10T05:12:01;10.50;99.90
11005;DHT22;5555;59.622;16.556;2023-05-10T05:14:26;10.50;99.90
11005;DHT22;5555;59.622;16.556;2023-05-10T05:16:52;10.50;99.90
11005;DHT22;5555;59.622;16.556;2023-05-10T05:19:18;10.50;99.90
11005;DHT22;5555;59.622;16.556;2023-05-10T05:21:43;10.70;99.90
11005;DHT22;5555;59.622;16.556;2023-05-10T05:24:09;10.90;99.90
11005;DHT22;5555;59.622;16.556;2023-05-10T05:26:36;11.10;99.90
11005;DHT22;5555;59.622;16.556;2023-05-10T05:29:02;11.10;99.90
11005;DHT22;5555;59.622;16.556;2023-05-10T05:31:28;11.20;99.90
11005;DHT22;5555;59.622;16.556;2023-05-10T05:33:54;11.30;99.90
11005;DHT22;5555;59.622;16.556;2023-05-10T05:36:19;11.40;99.90
11005;DHT22;5555;59.622;16.556;2023-05-10T05:38:45;11.40;99.90
11005;DHT22;5555;59.622;16.556;2023-05-10T05:41:11;11.40;99.90
11005;DHT22;5555;59.622;16.556;2023-05-10T05:43:36;11.40;99.90
11005;DHT22;5555;59.622;16.556;2023-05-10T05:46:02;11.60;99.90
11005;DHT22;5555;59.622;16.556;2023-05-10T05:48:29;11.60;99.90
11005;DHT22;5555;59.622;16.556;2023-05-10T05:50:55;11.70;99.90
11005;DHT22;5555;59.622;16.556;2023-05-10T05:53:22;11.60;99.90
11005;DHT22;5555;59.622;16.556;2023-05-10T05:55:54;11.60;99.90
11005;DHT22;5555;59.622;16.556;2023-05-10T05:58:21;11.80;99.90
11005;DHT22;5555;59.622;16.556;2023-05-10T06:00:47;12.00;99.90
11005;DHT22;5555;59.622;16.556;2023-05-10T06:03:12;12.00;99.90
11005;DHT22;5555;59.622;16.556;2023-05-10T06:05:38;12.00;99.90
11005;DHT22;5555;59.622;16.556;2023-05-10T06:08:03;12.20;99.90
11005;DHT22;5555;59.622;16.556;2023-05-10T06:10:29;12.20;99.90
11005;DHT22;5555;59.622;16.556;2023-05-10T06:12:55;12.30;99.90
11005;DHT22;5555;59.622;16.556;2023-05-10T06:15:21;12.30;99.90
11005;DHT22;5555;59.622;16.556;2023-05-10T06:17:47;12.40;99.90
11005;DHT22;5555;59.622;16.556;2023-05-10T06:20:15;12.50;99.90
11005;DHT22;5555;59.622;16.556;2023-05-10T06:22:40;12.60;99.90
11005;DHT22;5555;59.622;16.556;2023-05-10T06:25:06;12.60;99.90
11005;DHT22;5555;59.622;16.556;2023-05-10T06:27:32;12.50;99.90
11005;DHT22;5555;59.622;16.556;2023-05-10T06:29:58;12.60;99.90
11005;DHT22;5555;59.622;16.556;2023-05-10T06:32:24;12.70;99.90
11005;DHT22;5555;59.622;16.556;2023-05-10T06:34:50;12.80;99.90
11005;DHT22;5555;59.622;16.556;2023-05-10T06:37:15;12.90;99.90
11005;DHT22;5555;59.622;16.556;2023-05-10T06:39:41;12.70;99.90
11005;DHT22;5555;59.622;16.556;2023-05-10T06:42:07;12.90;99.90
11005;DHT22;5555;59.622;16.556;2023-05-10T06:44:32;13.10;99.90
11005;DHT22;5555;59.622;16.556;2023-05-10T06:46:58;13.10;99.90
11005;DHT22;5555;59.622;16.556;2023-05-10T06:49:24;13.30;99.90
11005;DHT22;5555;59.622;16.556;2023-05-10T06:51:49;13.30;99.90
11005;DHT22;5555;59.622;16.556;2023-05-10T06:54:15;13.50;99.90
11005;DHT22;5555;59.622;16.556;2023-05-10T06:56:40;13.60;99.90
11005;DHT22;5555;59.622;16.556;2023-05-10T06:59:06;13.70;99.90
11005;DHT22;5555;59.622;16.556;2023-05-10T07:01:32;13.80;99.90
11005;DHT22;5555;59.622;16.556;2023-05-10T07:03:58;14.00;99.70
11005;DHT22;5555;59.622;16.556;2023-05-10T07:06:23;14.20;99.90
11005;DHT22;5555;59.622;16.556;2023-05-10T07:08:49;14.10;99.90
11005;DHT22;5555;59.622;16.556;2023-05-10T07:11:14;14.10;99.70
11005;DHT22;5555;59.622;16.556;2023-05-10T07:13:40;14.30;99.20
11005;DHT22;5555;59.622;16.556;2023-05-10T07:16:09;14.50;98.90
11005;DHT22;5555;59.622;16.556;2023-05-10T07:18:35;14.60;98.10
11005;DHT22;5555;59.622;16.556;2023-05-10T07:21:01;14.80;98.10
11005;DHT22;5555;59.622;16.556;2023-05-10T07:23:27;15.00;97.80
11005;DHT22;5555;59.622;16.556;2023-05-10T07:25:53;15.20;97.40
11005;DHT22;5555;59.622;16.556;2023-05-10T07:28:19;15.10;96.90
11005;DHT22;5555;59.622;16.556;2023-05-10T07:30:45;15.10;96.30
11005;DHT22;5555;59.622;16.556;2023-05-10T07:33:11;15.10;96.60
11005;DHT22;5555;59.622;16.556;2023-05-10T07:35:37;15.30;95.80
11005;DHT22;5555;59.622;16.556;2023-05-10T07:38:03;15.30;96.30
11005;DHT22;5555;59.622;16.556;2023-05-10T07:40:29;15.50;96.00
11005;DHT22;5555;59.622;16.556;2023-05-10T07:42:55;15.50;95.40
11005;DHT22;5555;59.622;16.556;2023-05-10T07:45:21;15.30;95.40
11005;DHT22;5555;59.622;16.556;2023-05-10T07:47:46;15.50;95.60
11005;DHT22;5555;59.622;16.556;2023-05-10T07:50:12;15.50;95.00
11005;DHT22;5555;59.622;16.556;2023-05-10T07:52:38;15.70;95.30
11005;DHT22;5555;59.622;16.556;2023-05-10T07:55:03;15.70;95.40
11005;DHT22;5555;59.622;16.556;2023-05-10T07:57:29;15.80;95.40
11005;DHT22;5555;59.622;16.556;2023-05-10T07:59:56;16.00;94.70
11005;DHT22;5555;59.622;16.556;2023-05-10T08:02:21;16.00;94.50
11005;DHT22;5555;59.622;16.556;2023-05-10T08:04:47;16.10;94.20
11005;DHT22;5555;59.622;16.556;2023-05-10T08:07:12;16.30;94.20
11005;DHT22;5555;59.622;16.556;2023-05-10T08:09:38;16.40;94.00
11005;DHT22;5555;59.622;16.556;2023-05-10T08:12:04;16.60;94.00
11005;DHT22;5555;59.622;16.556;2023-05-10T08:14:29;16.80;93.50
11005;DHT22;5555;59.622;16.556;2023-05-10T08:16:55;16.90;93.20
11005;DHT22;5555;59.622;16.556;2023-05-10T08:19:21;17.10;92.60
11005;DHT22;5555;59.622;16.556;2023-05-10T08:21:48;17.10;92.30
11005;DHT22;5555;59.622;16.556;2023-05-10T08:24:13;17.10;92.30
11005;DHT22;5555;59.622;16.556;2023-05-10T08:26:39;17.10;92.10
11005;DHT22;5555;59.622;16.556;2023-05-10T08:29:05;17.20;92.20
11005;DHT22;5555;59.622;16.556;2023-05-10T08:31:31;17.30;91.80
11005;DHT22;5555;59.622;16.556;2023-05-10T08:33:56;17.60;91.90
11005;DHT22;5555;59.622;16.556;2023-05-10T08:36:22;17.70;91.20
11005;DHT22;5555;59.622;16.556;2023-05-10T08:38:53;17.70;91.50
11005;DHT22;5555;59.622;16.556;2023-05-10T08:41:22;17.70;90.70
11005;DHT22;5555;59.622;16.556;2023-05-10T08:43:53;17.70;91.50
11005;DHT22;5555;59.622;16.556;2023-05-10T08:46:21;17.70;91.10
11005;DHT22;5555;59.622;16.556;2023-05-10T08:48:49;17.80;90.80
11005;DHT22;5555;59.622;16.556;2023-05-10T08:51:22;17.80;90.60
11005;DHT22;5555;59.622;16.556;2023-05-10T08:53:48;17.90;90.10
11005;DHT22;5555;59.622;16.556;2023-05-10T08:56:13;18.20;90.60
11005;DHT22;5555;59.622;16.556;2023-05-10T08:58:41;18.30;87.00
11005;DHT22;5555;59.622;16.556;2023-05-10T09:01:07;18.60;87.20
11005;DHT22;5555;59.622;16.556;2023-05-10T09:03:34;18.60;85.30
11005;DHT22;5555;59.622;16.556;2023-05-10T09:06:00;18.80;86.10
11005;DHT22;5555;59.622;16.556;2023-05-10T09:08:26;18.60;84.40
11005;DHT22;5555;59.622;16.556;2023-05-10T09:10:54;18.80;84.50
11005;DHT22;5555;59.622;16.556;2023-05-10T09:13:21;18.90;83.90
11005;DHT22;5555;59.622;16.556;2023-05-10T09:15:48;19.10;81.40
11005;DHT22;5555;59.622;16.556;2023-05-10T09:18:14;19.20;79.70
11005;DHT22;5555;59.622;16.556;2023-05-10T09:20:40;19.40;78.50
11005;DHT22;5555;59.622;16.556;2023-05-10T09:23:06;19.40;77.10
11005;DHT22;5555;59.622;16.556;2023-05-10T09:25:32;19.40;76.10
11005;DHT22;5555;59.622;16.556;2023-05-10T09:28:00;19.50;74.10
11005;DHT22;5555;59.622;16.556;2023-05-10T09:30:30;19.40;74.50
11005;DHT22;5555;59.622;16.556;2023-05-10T09:32:58;19.40;73.70
11005;DHT22;5555;59.622;16.556;2023-05-10T09:35:26;19.30;74.40
11005;DHT22;5555;59.622;16.556;2023-05-10T09:37:54;19.40;76.70
11005;DHT22;5555;59.622;16.556;2023-05-10T09:40:22;19.70;73.70
11005;DHT22;5555;59.622;16.556;2023-05-10T09:45:19;19.60;71.70
11005;DHT22;5555;59.622;16.556;2023-05-10T09:47:45;19.30;73.10
11005;DHT22;5555;59.622;16.556;2023-05-10T09:50:11;19.30;72.70
11005;DHT22;5555;59.622;16.556;2023-05-10T09:52:53;19.30;71.90
11005;DHT22;5555;59.622;16.556;2023-05-10T09:55:23;19.60;71.80
11005;DHT22;5555;59.622;16.556;2023-05-10T09:57:58;20.00;70.30
11005;DHT22;5555;59.622;16.556;2023-05-10T10:00:24;20.00;72.70
11005;DHT22;5555;59.622;16.556;2023-05-10T10:03:00;20.10;70.70
11005;DHT22;5555;59.622;16.556;2023-05-10T10:05:29;20.00;69.40
11005;DHT22;5555;59.622;16.556;2023-05-10T10:07:57;20.10;71.00
11005;DHT22;5555;59.622;16.556;2023-05-10T10:10:25;20.20;68.20
11005;DHT22;5555;59.622;16.556;2023-05-10T10:12:51;20.60;71.30
11005;DHT22;5555;59.622;16.556;2023-05-10T10:15:17;20.70;68.10
11005;DHT22;5555;59.622;16.556;2023-05-10T10:17:43;20.60;69.20
11005;DHT22;5555;59.622;16.556;2023-05-10T10:20:10;20.40;68.70
11005;DHT22;5555;59.622;16.556;2023-05-10T10:22:36;20.40;69.20
11005;DHT22;5555;59.622;16.556;2023-05-10T10:25:04;20.70;69.20
11005;DHT22;5555;59.622;16.556;2023-05-10T10:35:29;20.50;66.20
11005;DHT22;5555;59.622;16.556;2023-05-10T10:37:56;20.90;65.90
11005;DHT22;5555;59.622;16.556;2023-05-10T10:40:27;20.90;65.90
11005;DHT22;5555;59.622;16.556;2023-05-10T10:42:53;20.70;65.50
11005;DHT22;5555;59.622;16.556;2023-05-10T10:45:20;21.10;65.20
11005;DHT22;5555;59.622;16.556;2023-05-10T10:47:46;21.40;64.60
11005;DHT22;5555;59.622;16.556;2023-05-10T10:50:12;21.10;66.10
11005;DHT22;5555;59.622;16.556;2023-05-10T10:52:42;21.30;62.40
11005;DHT22;5555;59.622;16.556;2023-05-10T10:55:10;21.40;64.10
11005;DHT22;5555;59.622;16.556;2023-05-10T11:02:54;21.50;62.30
11005;DHT22;5555;59.622;16.556;2023-05-10T11:05:25;21.40;62.50
11005;DHT22;5555;59.622;16.556;2023-05-10T11:07:58;21.30;60.80
11005;DHT22;5555;59.622;16.556;2023-05-10T11:10:26;21.50;60.70
11005;DHT22;5555;59.622;16.556;2023-05-10T11:13:02;21.30;61.80
11005;DHT22;5555;59.622;16.556;2023-05-10T11:15:37;21.40;61.90
11005;DHT22;5555;59.622;16.556;2023-05-10T11:18:30;21.70;60.90
11005;DHT22;5555;59.622;16.556;2023-05-10T11:21:02;21.80;62.00
11005;DHT22;5555;59.622;16.556;2023-05-10T11:25:56;22.50;61.10
11005;DHT22;5555;59.622;16.556;2023-05-10T11:28:23;22.50;60.60
11005;DHT22;5555;59.622;16.556;2023-05-10T11:30:48;22.50;61.70
11005;DHT22;5555;59.622;16.556;2023-05-10T11:33:18;22.70;59.70
11005;DHT22;5555;59.622;16.556;2023-05-10T11:35:45;23.00;60.20
11005;DHT22;5555;59.622;16.556;2023-05-10T11:38:12;23.60;58.00
11005;DHT22;5555;59.622;16.556;2023-05-10T11:40:39;23.10;59.60
11005;DHT22;5555;59.622;16.556;2023-05-10T11:43:05;23.60;59.40
11005;DHT22;5555;59.622;16.556;2023-05-10T11:45:35;23.60;57.10
11005;DHT22;5555;59.622;16.556;2023-05-10T11:48:01;23.90;57.20
11005;DHT22;5555;59.622;16.556;2023-05-10T11:50:28;23.50;59.90
11005;DHT22;5555;59.622;16.556;2023-05-10T11:52:54;23.40;56.70
11005;DHT22;5555;59.622;16.556;2023-05-10T11:55:21;23.60;56.40
11005;DHT22;5555;59.622;16.556;2023-05-10T11:57:48;23.80;58.00
11005;DHT22;5555;59.622;16.556;2023-05-10T12:00:16;24.10;57.60
11005;DHT22;5555;59.622;16.556;2023-05-10T12:02:42;24.30;58.60
11005;DHT22;5555;59.622;16.556;2023-05-10T12:05:08;24.10;60.00
11005;DHT22;5555;59.622;16.556;2023-05-10T12:07:35;23.30;59.10
11005;DHT22;5555;59.622;16.556;2023-05-10T12:10:07;23.30;57.50
11005;DHT22;5555;59.622;16.556;2023-05-10T12:12:44;23.30;56.80
11005;DHT22;5555;59.622;16.556;2023-05-10T12:15:21;23.50;57.00
11005;DHT22;5555;59.622;16.556;2023-05-10T12:17:48;24.00;55.30
11005;DHT22;5555;59.622;16.556;2023-05-10T12:20:19;24.30;56.10
11005;DHT22;5555;59.622;16.556;2023-05-10T12:22:56;24.40;59.40
11005;DHT22;5555;59.622;16.556;2023-05-10T12:25:24;24.20;56.10
11005;DHT22;5555;59.622;16.556;2023-05-10T12:27:56;24.70;55.20
11005;DHT22;5555;59.622;16.556;2023-05-10T12:30:27;25.10;54.20
11005;DHT22;5555;59.622;16.556;2023-05-10T12:32:53;24.90;54.20
11005;DHT22;5555;59.622;16.556;2023-05-10T12:35:20;24.90;53.00
11005;DHT22;5555;59.622;16.556;2023-05-10T12:37:50;25.40;50.10
11005;DHT22;5555;59.622;16.556;2023-05-10T12:40:16;25.40;52.20
11005;DHT22;5555;59.622;16.556;2023-05-10T12:42:42;25.10;51.90
11005;DHT22;5555;59.622;16.556;2023-05-10T12:45:10;24.90;53.20
11005;DHT22;5555;59.622;16.556;2023-05-10T12:47:36;25.10;52.90
11005;DHT22;5555;59.622;16.556;2023-05-10T12:50:02;24.80;54.40
11005;DHT22;5555;59.622;16.556;2023-05-10T12:52:28;25.50;51.00
11005;DHT22;5555;59.622;16.556;2023-05-10T12:54:54;25.10;50.30
11005;DHT22;5555;59.622;16.556;2023-05-10T12:57:20;24.70;52.00
11005;DHT22;5555;59.622;16.556;2023-05-10T12:59:47;24.70;53.70
11005;DHT22;5555;59.622;16.556;2023-05-10T13:02:12;25.20;52.10
11005;DHT22;5555;59.622;16.556;2023-05-10T13:04:40;24.90;50.90
11005;DHT22;5555;59.622;16.556;2023-05-10T13:07:09;25.30;50.80
11005;DHT22;5555;59.622;16.556;2023-05-10T13:09:35;25.40;50.70
11005;DHT22;5555;59.622;16.556;2023-05-10T13:12:01;25.30;50.10
11005;DHT22;5555;59.622;16.556;2023-05-10T13:14:27;25.10;49.80
11005;DHT22;5555;59.622;16.556;2023-05-10T13:16:53;24.90;49.70
11005;DHT22;5555;59.622;16.556;2023-05-10T13:19:19;25.10;48.90
11005;DHT22;5555;59.622;16.556;2023-05-10T13:21:45;24.60;49.60
11005;DHT22;5555;59.622;16.556;2023-05-10T13:24:11;25.00;49.50
11005;DHT22;5555;59.622;16.556;2023-05-10T13:26:39;24.60;51.20
11005;DHT22;5555;59.622;16.556;2023-05-10T13:29:06;24.30;52.60
11005;DHT22;5555;59.622;16.556;2023-05-10T13:31:32;24.00;52.80
11005;DHT22;5555;59.622;16.556;2023-05-10T13:33:57;23.70;49.90
11005;DHT22;5555;59.622;16.556;2023-05-10T13:36:23;23.90;50.40
11005;DHT22;5555;59.622;16.556;2023-05-10T13:38:49;23.90;51.00
11005;DHT22;5555;59.622;16.556;2023-05-10T13:41:14;24.70;48.70
11005;DHT22;5555;59.622;16.556;2023-05-10T13:43:40;25.30;48.50
11005;DHT22;5555;59.622;16.556;2023-05-10T13:46:06;25.40;48.70
11005;DHT22;5555;59.622;16.556;2023-05-10T13:48:31;25.50;49.40
11005;DHT22;5555;59.622;16.556;2023-05-10T13:50:57;26.10;48.00
11005;DHT22;5555;59.622;16.556;2023-05-10T13:53:22;25.30;48.90
11005;DHT22;5555;59.622;16.556;2023-05-10T13:55:48;25.10;49.80
11005;DHT22;5555;59.622;16.556;2023-05-10T13:58:14;25.40;49.60
11005;DHT22;5555;59.622;16.556;2023-05-10T14:00:39;26.20;47.60
11005;DHT22;5555;59.622;16.556;2023-05-10T14:03:05;26.30;46.30
11005;DHT22;5555;59.622;16.556;2023-05-10T14:05:32;26.30;45.40
11005;DHT22;5555;59.622;16.556;2023-05-10T14:07:58;26.40;44.80
11005;DHT22;5555;59.622;16.556;2023-05-10T14:10:23;25.60;46.40
11005;DHT22;5555;59.622;16.556;2023-05-10T14:12:49;26.00;48.60
11005;DHT22;5555;59.622;16.556;2023-05-10T14:15:15;25.50;46.60
11005;DHT22;5555;59.622;16.556;2023-05-10T14:17:41;25.50;47.20
11005;DHT22;5555;59.622;16.556;2023-05-10T14:20:07;25.40;46.60
11005;DHT22;5555;59.622;16.556;2023-05-10T14:22:33;26.20;47.40
11005;DHT22;5555;59.622;16.556;2023-05-10T14:24:59;26.80;46.00
11005;DHT22;5555;59.622;16.556;2023-05-10T14:27:25;26.30;47.60
11005;DHT22;5555;59.622;16.556;2023-05-10T14:29:51;25.80;46.40
11005;DHT22;5555;59.622;16.556;2023-05-10T14:32:17;26.20;47.50
11005;DHT22;5555;59.622;16.556;2023-05-10T14:34:42;26.40;46.80
11005;DHT22;5555;59.622;16.556;2023-05-10T14:37:10;26.10;46.90
11005;DHT22;5555;59.622;16.556;2023-05-10T14:39:36;26.90;45.60
11005;DHT22;5555;59.622;16.556;2023-05-10T14:42:02;26.40;45.50
11005;DHT22;5555;59.622;16.556;2023-05-10T14:44:28;26.50;45.80
11005;DHT22;5555;59.622;16.556;2023-05-10T14:46:54;25.40;45.60
11005;DHT22;5555;59.622;16.556;2023-05-10T14:49:21;26.00;45.90
11005;DHT22;5555;59.622;16.556;2023-05-10T14:51:48;25.60;45.00
11005;DHT22;5555;59.622;16.556;2023-05-10T14:54:13;25.50;45.00
11005;DHT22;5555;59.622;16.556;2023-05-10T14:56:39;26.10;45.40
11005;DHT22;5555;59.622;16.556;2023-05-10T14:59:07;26.10;45.10
11005;DHT22;5555;59.622;16.556;2023-05-10T15:01:32;26.00;46.20
11005;DHT22;5555;59.622;16.556;2023-05-10T15:04:00;26.10;45.80
11005;DHT22;5555;59.622;16.556;2023-05-10T15:06:34;26.80;45.40
11005;DHT22;5555;59.622;16.556;2023-05-10T15:09:01;25.40;45.00
11005;DHT22;5555;59.622;16.556;2023-05-10T15:11:28;26.10;43.80
11005;DHT22;5555;59.622;16.556;2023-05-10T15:13:54;25.80;45.00
11005;DHT22;5555;59.622;16.556;2023-05-10T15:16:20;26.70;45.00
11005;DHT22;5555;59.622;16.556;2023-05-10T15:18:46;26.50;45.30
11005;DHT22;5555;59.622;16.556;2023-05-10T15:21:12;26.30;45.80
11005;DHT22;5555;59.622;16.556;2023-05-10T15:23:37;26.70;45.30
11005;DHT22;5555;59.622;16.556;2023-05-10T15:26:03;26.80;45.50
11005;DHT22;5555;59.622;16.556;2023-05-10T15:28:29;26.50;45.10
11005;DHT22;5555;59.622;16.556;2023-05-10T15:30:55;27.40;42.20
11005;DHT22;5555;59.622;16.556;2023-05-10T15:33:21;27.40;42.80
11005;DHT22;5555;59.622;16.556;2023-05-10T15:35:47;26.30;42.70
11005;DHT22;5555;59.622;16.556;2023-05-10T15:38:13;26.70;42.20
11005;DHT22;5555;59.622;16.556;2023-05-10T15:40:39;27.00;42.80
11005;DHT22;5555;59.622;16.556;2023-05-10T15:43:05;26.00;43.00
11005;DHT22;5555;59.622;16.556;2023-05-10T15:45:30;26.30;42.60
11005;DHT22;5555;59.622;16.556;2023-05-10T15:47:57;27.30;42.40
11005;DHT22;5555;59.622;16.556;2023-05-10T15:50:22;27.60;41.10
11005;DHT22;5555;59.622;16.556;2023-05-10T15:52:48;27.70;41.20
11005;DHT22;5555;59.622;16.556;2023-05-10T15:55:14;26.30;44.10
11005;DHT22;5555;59.622;16.556;2023-05-10T15:57:40;26.30;42.10
11005;DHT22;5555;59.622;16.556;2023-05-10T16:00:08;26.30;41.80
11005;DHT22;5555;59.622;16.556;2023-05-10T16:02:34;26.60;41.40
11005;DHT22;5555;59.622;16.556;2023-05-10T16:05:00;27.00;41.10